Dauntless Aviation
Airports North America Canada
CYHZ
YHZ

Halifax / Stanfield International Airport

Halifax, CANADA

Airport Info
Suggest Updated Information for this Airport

Location

Latitude / Longitude: 44°52'50"N / 63°30'30"W
  44°52.848'N / 63°30.516'W
  44.8808 / -63.5086

Nearby radio navigation aids

IHZ HALIFAX DME on field.
YHZ HALIFAX VOR/DME. 261.1° 5.2nm from YHZ to field.
YYZ TORONTO VOR/DME. 310.5° 12.2nm from YYZ to field.
ZHZ SPLIT CROW NDB. 55.9° 5.8nm from ZHZ to field.
ZNS BLUENOSE NDB. 233.7° 6.2nm from ZNS to field.

Runway Information

Runway 05 /23

Dimensions: 8800 x 200 ft.
Surface: ASP
 
Runway 05
Runway 23
Latitude: 44.868686 44.888408
Longitude: -63.524067 -63.504622
Elevation: 477 ft. 477 ft.
Runway true heading: 33.2 213.2
 

Runway 14 /32

Dimensions: 7700 x 200 ft.
Surface: ASP
 
Runway 14
Runway 32
Latitude: 44.893778 44.881564
Longitude: -63.517222 -63.492969
Elevation: 435 ft. 435 ft.
Runway true heading: 123.2 302.8
 

Instrument Procedures

  Airport Diagram
  Parking Areas
  Low Visibility Taxi Chart

IAPs (Instrument Approach Procedures)

  Low Visibility Procedures
Satellite photo at:
Airport distance calculator
From:
Weather Reports

METAR

CYHZ

CYHZ 232000Z 30008G16KT 15SM FEW022 FEW260 02/M03 A2977 RMK SC1CI1 SC TR SLP088
CYAW
14.9nm SE
CYAW 232000Z 30009G15KT 15SM FEW025 FEW250 04/M03 A2980 RMK SC1CI1 DA-952FT SLP092
CXMI
16.9nm S
CXMI 232000Z AUTO 28007KT 05/M02 RMK AO1 T00511015

TAF

CYHZ
TAF CYHZ 231740Z 2318/2418 29012G22KT P6SM SCT020 TEMPO 2318/2324 BKN020 FM240000 27010KT P6SM FEW025 FM240400 25008KT P6SM FEW025 SCT120 FM241200 25008KT P6SM BKN030 RMK NXT FCST BY 232100Z
CYAW
14.9nm SE
TAF CYAW 231730Z 2318/2406 29012G22KT P6SM SCT025 BECMG 2320/2321 28012KT FM240300 28010KT P6SM SCT020 SCT150 BKN200 RMK NXT FCST BY 240000Z
Safelog

 

Dauntless Aviation

© 2007-2017 Dauntless Aviation, all rights reserved
Information provided via PilotNav comes from a variety of official and unofficial data sources. As errors are possible, do not use PilotNav for primary flight planning purposes. Verify any information that you receive via PilotNav with current and canonical charts and other official documents. The material in this database is subject to database copyrights held by Dauntless Aviation and may not be copied without the express permission of Dauntless Aviation - licenses for use of part of all of this data are available for purchase; enquire via the Dauntless Aviation helpdesk. A number of mechanisms and markers exist in the database to protect against and identify infringement / copyright. Automated queries against this website are stictly prohibited, and all activity is logged and analyzed.